Home > Products > Valid Products > MTR

000
SAUS43 KEAX 241554
MTRCDJ
METAR KCDJ 241552Z AUTO 14012G18KT 12/11 A2971 RMK AO1 SLP058 P0033
T01220106





000
SAUS43 KEAX 241454
MTRCDJ
METAR KCDJ 241452Z AUTO 18003KT 12/10 A2973 RMK AO1 SLP065 P0019
60019 T01170100 53008





000
SAUS43 KEAX 241353
MTRCDJ
METAR KCDJ 241352Z AUTO 14005KT 14/07 A2971 RMK AO1 SLP056 T01440067





000
SAUS43 KEAX 241254
MTRCDJ
METAR KCDJ 241252Z AUTO 13008KT 16/06 A2970 RMK AO1 SLP052 T01560056





000
SAUS43 KEAX 241154
MTRCDJ
METAR KCDJ 241152Z AUTO 12007KT 16/06 A2970 RMK AO1 SLP053 70002
T01560061 10167 20139 53008 $





000
SAUS43 KEAX 241053
MTRCDJ
METAR KCDJ 241052Z AUTO 11005KT 14/07 A2971 RMK AO1 SLP056 T01440072
$





000
SAUS43 KEAX 240953
MTRCDJ
METAR KCDJ 240952Z AUTO 13009G18KT 17/05 A2967 RMK AO1 SLP039
T01670050 $





000
SAUS43 KEAX 240853
MTRCDJ
METAR KCDJ 240852Z AUTO VRB05KT 16/04 A2968 RMK AO1 SLP045 T01610044
58030 $





000
SAUS43 KEAX 240753
MTRCDJ
METAR KCDJ 240752Z AUTO 13008KT 15/04 A2970 RMK AO1 SLP053 T01500044
$





000
SAUS43 KEAX 240655
MTRCDJ
METAR KCDJ 240652Z AUTO 14008KT 15/04 A2975 RMK AO1 SLP071 T01500039
$





000
SAUS43 KEAX 240553
MTRCDJ
METAR KCDJ 240552Z AUTO 15008G15KT 14/04 A2977 RMK AO1 SLP080
T01440039 10189 20139 402000100 58002 $





000
SAUS43 KEAX 240453
MTRCDJ
METAR KCDJ 240452Z AUTO 12008KT 14/04 A2977 RMK AO1 SLP080 T01440039
$





000
SAUS43 KEAX 240353
MTRCDJ
METAR KCDJ 240352Z AUTO 13008KT 14/04 A2979 RMK AO1 SLP086 T01390039
$





000
SAUS43 KEAX 240254
MTRCDJ
METAR KCDJ 240252Z AUTO 12009KT 14/04 A2978 RMK AO1 SLP082 T01440044
56008 $





000
SAUS43 KEAX 240154
MTRCDJ
METAR KCDJ 240152Z AUTO 11013G19KT 16/05 A2978 RMK AO1 SLP084
T01610050 $





000
SAUS43 KEAX 240053
MTRCDJ
METAR KCDJ 240052Z AUTO 13013G19KT 18/03 A2978 RMK AO1 SLP079
T01830033 $





000
SAUS43 KEAX 232353
MTRCDJ
METAR KCDJ 232352Z AUTO 14011G22KT 19/03 A2980 RMK AO1 SLP088
T01890028 10200 20133 58035 $





000
SAUS43 KEAX 232254
MTRCDJ
METAR KCDJ 232252Z AUTO 13009G18KT 19/03 A2984 RMK AO1 SLP102
T01940033 $





000
SAUS43 KEAX 232153
MTRCDJ
METAR KCDJ 232152Z AUTO 11010G19KT 20/04 A2987 RMK AO1 SLP111
T02000039





000
SAUS43 KEAX 232053
MTRCDJ
METAR KCDJ 232052Z AUTO 10010KT 18/05 A2990 RMK AO1 SLP125 T01780050
56025





000
SAUS43 KEAX 231953
MTRCDJ
METAR KCDJ 231952Z AUTO 12013G22KT 18/04 A2992 RMK AO1 SLP129
T01780039 $





000
SAUS43 KEAX 231853
MTRCDJ
METAR KCDJ 231852Z AUTO 13013G18KT 15/04 A2995 RMK AO1 SLP140
T01500039





000
SAUS43 KEAX 231753
MTRCDJ
METAR KCDJ 231752Z AUTO 13010KT 13/06 A2998 RMK AO1 SLP152 60002
T01330056 10133 20106 58026





000
SAUS43 KEAX 231653
MTRCDJ
METAR KCDJ 231652Z AUTO 14008KT 12/04 A3002 RMK AO1 SLP167 P0001
T01220039





000
SAUS43 KEAX 231554
MTRCDJ
METAR KCDJ 231552Z AUTO 14007KT 12/03 A3004 RMK AO1 SLP174 P0001
T01220033





000
SAUS43 KEAX 231459 COR
MTRCDJ
METAR KCDJ 231452Z AUTO 14007KT 12/02 A3006 RMK AO1 SLP180 T01220017
50006





000
SAUS43 KEAX 231359 COR
MTRCDJ
METAR KCDJ 231352Z AUTO 12005KT 12/02 A3007 RMK AO1 SLP184 T01220022





000
SAUS43 KEAX 231300 COR
MTRCDJ
METAR KCDJ 231252Z AUTO 11004KT 11/02 A3006 RMK AO1 SLP176 T01110017





000
SAUS43 KEAX 231156
MTRCDJ
METAR KCDJ 231152Z AUTO 11006KT 11/01 A3004 RMK AO1 SLP170 T01060011
10122 20100 51004 $





000
SAUS43 KEAX 231100 COR
MTRCDJ
METAR KCDJ 231052Z AUTO 10005KT 11/01 A3004 RMK AO1 SLP169 T01060011
$





000
SAUS43 KEAX 231000 COR
MTRCDJ
METAR KCDJ 230952Z AUTO 00000KT 11/01 A3004 RMK AO1 SLP170 T01060006
$





000
SAUS43 KEAX 230856
MTRCDJ
METAR KCDJ 230852Z AUTO 10007KT 11/02 A3003 RMK AO1 SLP165 T01110017
56006 $





000
SAUS43 KEAX 230756
MTRCDJ
METAR KCDJ 230752Z AUTO 10003KT 11/01 A3003 RMK AO1 SLP168 T01060011
$





000
SAUS43 KEAX 230656
MTRCDJ
METAR KCDJ 230652Z AUTO 00000KT 11/02 A3004 RMK AO1 SLP169 T01110017
$





000
SAUS43 KEAX 230556
MTRCDJ
METAR KCDJ 230552Z AUTO 00000KT 11/02 A3005 RMK AO1 SLP173 T01110017
10189 20100 402000078 53003 $





000
SAUS43 KEAX 230500 COR
MTRCDJ
METAR KCDJ 230452Z AUTO 00000KT 12/04 A3004 RMK AO1 SLP172 T01170044
$





000
SAUS43 KEAX 230359 COR
MTRCDJ
METAR KCDJ 230352Z AUTO 00000KT 12/03 A3004 RMK AO1 SLP172 T01170033
$





000
SAUS43 KEAX 230257
MTRCDJ
METAR KCDJ 230252Z AUTO 06003KT 11/06 A3004 RMK AO1 SLP173 T01110056
53003 $





000
SAUS43 KEAX 230200 COR
MTRCDJ
METAR KCDJ 230152Z AUTO 00000KT 12/06 A3002 RMK AO1 SLP168 T01220056
$





000
SAUS43 KEAX 230100 COR
MTRCDJ
METAR KCDJ 230052Z AUTO 04003KT 17/01 A3002 RMK AO1 SLP165 T01720011
$





000
SAUS43 KEAX 222356
MTRCDJ
METAR KCDJ 222352Z AUTO 06005KT 19/00 A3003 RMK AO1 SLP167 T01890000
10200 20161 56011 $





000
SAUS43 KEAX 222257
MTRCDJ
METAR KCDJ 222252Z AUTO 01004KT 20/02 A3004 RMK AO1 SLP170 T02000017
$





000
SAUS43 KEAX 222156
MTRCDJ
METAR KCDJ 222152Z AUTO 36005KT 20/02 A3004 RMK AO1 SLP170 T02000017
$





000
SAUS43 KEAX 222100 COR
MTRCDJ
METAR KCDJ 222052Z AUTO VRB04KT 19/02 A3006 RMK AO1 SLP178 T01890017
58022 $





000
SAUS43 KEAX 221959 COR
MTRCDJ
METAR KCDJ 221952Z AUTO VRB05KT 18/02 A3009 RMK AO1 SLP186 T01830017
$





000
SAUS43 KEAX 221857
MTRCDJ
METAR KCDJ 221852Z AUTO 03007KT 18/01 A3010 RMK AO1 SLP191 T01780011





000
SAUS43 KEAX 221756
MTRCDJ
METAR KCDJ 221752Z AUTO 36007KT 17/02 A3013 RMK AO1 SLP199 T01670017
10167 20078 58008





000
SAUS43 KEAX 221656
MTRCDJ
METAR KCDJ 221652Z AUTO 02007KT 16/02 A3014 RMK AO1 SLP206 T01560022





000
SAUS43 KEAX 221556
MTRCDJ
METAR KCDJ 221552Z AUTO 04011G15KT 14/02 A3015 RMK AO1 SLP210
T01390017





000
SAUS43 KEAX 221456
MTRCDJ
METAR KCDJ 221452Z AUTO 02010KT 12/01 A3015 RMK AO1 SLP210 T01170006
51008





000
SAUS43 KEAX 221400 COR
MTRCDJ
METAR KCDJ 221352Z AUTO 03008KT 11/01 A3015 RMK AO1 SLP208 T01060011





000
SAUS43 KEAX 221300 COR
MTRCDJ
METAR KCDJ 221252Z AUTO 01007KT 09/01 A3014 RMK AO1 SLP205 T00890006





000
SAUS43 KEAX 221200 COR
MTRCDJ
METAR KCDJ 221152Z AUTO 36006KT 08/01 A3013 RMK AO1 SLP200 70027
T00780006 10139 20078 51011 $





000
SAUS43 KEAX 221100 COR
MTRCDJ
METAR KCDJ 221052Z AUTO 36005KT 08/01 A3012 RMK AO1 SLP195 T00830011
$





000
SAUS43 KEAX 221000 COR
MTRCDJ
METAR KCDJ 220952Z AUTO 34005KT 09/02 A3011 RMK AO1 SLP191 T00940017
$





000
SAUS43 KEAX 220900 COR
MTRCDJ
METAR KCDJ 220852Z AUTO 35006KT 10/03 A3009 RMK AO1 SLP186 T01000028
51013 $





000
SAUS43 KEAX 220756
MTRCDJ
METAR KCDJ 220752Z AUTO 35005KT 11/03 A3008 RMK AO1 SLP181 T01110033
$





000
SAUS43 KEAX 220659 COR
MTRCDJ
METAR KCDJ 220652Z AUTO 36008KT 13/04 A3007 RMK AO1 SLP179 T01280044
$





000
SAUS43 KEAX 220556
MTRCDJ
METAR KCDJ 220552Z AUTO 35005KT 14/04 A3005 RMK AO1 SLP172 T01390044
10211 20111 402440111 53014 $





000
SAUS43 KEAX 220459 COR
MTRCDJ
METAR KCDJ 220452Z AUTO 35005KT 13/04 A3004 RMK AO1 SLP167 T01330044
$





000
SAUS43 KEAX 220400 COR
MTRCDJ
METAR KCDJ 220352Z AUTO 34003KT 14/06 A3002 RMK AO1 SLP163 T01390061
$





000
SAUS43 KEAX 220300 COR
MTRCDJ
METAR KCDJ 220252Z AUTO 00000KT 13/10 A3001 RMK AO1 SLP159 T01280100
53023 $





000
SAUS43 KEAX 220156
MTRCDJ
METAR KCDJ 220152Z AUTO 00000KT 16/11 A2999 RMK AO1 SLP150 T01610106
$





000
SAUS43 KEAX 220056
MTRCDJ
METAR KCDJ 220052Z AUTO 35006KT 20/11 A2996 RMK AO1 SLP139 T02000106
$





000
SAUS43 KEAX 212356
MTRCDJ
METAR KCDJ 212352Z AUTO 35006KT 21/16 A2994 RMK AO1 SLP132 P0010
60012 T02060161 10244 20178 53000 $





000
SAUS43 KEAX 212256
MTRCDJ
METAR KCDJ 212252Z AUTO 32006KT 23/14 A2992 RMK AO1 SLP122 T02330139
$





000
SAUS43 KEAX 212200 COR
MTRCDJ
METAR KCDJ 212152Z AUTO 28006KT 24/14 A2992 RMK AO1 SLP122 T02390144
$





000
SAUS43 KEAX 212100 COR
MTRCDJ
METAR KCDJ 212052Z AUTO 32007KT 23/16 A2994 RMK AO1 SLP130 60002
T02280156 58013





000
SAUS43 KEAX 211957
MTRCDJ
METAR KCDJ 211952Z AUTO 32005KT 21/17 A2997 RMK AO1 SLP141 P0001
T02060167





000
SAUS43 KEAX 211856
MTRCDJ
METAR KCDJ 211852Z AUTO 29005KT 19/16 A2997 RMK AO1 SLP142 P0001
T01890161





000
SAUS43 KEAX 211800 COR
MTRCDJ
METAR KCDJ 211752Z AUTO 23005KT 20/16 A2998 RMK AO1 SLP144 60015
T02000156 10200 20161 58005





000
SAUS43 KEAX 211700 COR
MTRCDJ
METAR KCDJ 211652Z AUTO 27005KT 19/15 A2999 RMK AO1 SLP148 T01890150





    US Dept of Commerce
    National Oceanic and Atmospheric Administration
    National Weather Service
    1325 East West Highway
    Silver Spring, MD 20910
    Page Author: NWS Internet Services Team
Disclaimer
Information Quality
Credits
Glossary
Privacy Policy
Freedom of Information Act (FOIA)
About Us
Career Opportunities